createdAt,value
2023-02-25T00:03:21.022Z,9.70
2023-02-25T00:07:21.881Z,8.70
2023-02-25T00:11:40.634Z,9.20
2023-02-25T00:15:50.154Z,9.50
2023-02-25T00:19:59.804Z,9.30
2023-02-25T00:24:16.305Z,8.20
2023-02-25T00:28:19.370Z,9.40
2023-02-25T00:32:27.787Z,8.40
2023-02-25T00:36:18.193Z,8.60
2023-02-25T00:40:10.392Z,8.60
2023-02-25T00:44:20.004Z,7.80
2023-02-25T00:48:28.343Z,8.30
2023-02-25T00:52:37.775Z,9.30
2023-02-25T00:56:16.008Z,8.60
2023-02-25T00:59:55.450Z,8.50
2023-02-25T01:04:04.916Z,9.50
2023-02-25T01:08:08.744Z,7.60
2023-02-25T01:12:00.814Z,9.30
2023-02-25T01:16:10.660Z,8.10
2023-02-25T01:20:10.822Z,7.70
2023-02-25T01:24:20.740Z,7.80
2023-02-25T01:28:30.254Z,8.40
2023-02-25T01:31:56.012Z,8.30
2023-02-25T01:35:56.535Z,7.40
2023-02-25T01:39:27.729Z,7.60
2023-02-25T01:43:22.592Z,7.60
2023-02-25T01:47:17.992Z,7.80
2023-02-25T01:51:25.677Z,6.60
2023-02-25T01:55:33.902Z,7.70
2023-02-25T01:59:34.378Z,7.20
2023-02-25T02:03:28.809Z,7.00
2023-02-25T02:07:38.268Z,7.20
2023-02-25T02:11:16.915Z,6.70
2023-02-25T02:15:19.915Z,7.50
2023-02-25T02:19:13.427Z,6.80
2023-02-25T02:23:34.798Z,7.00
2023-02-25T02:27:50.240Z,7.40
2023-02-25T02:32:00.181Z,6.90
2023-02-25T02:36:09.628Z,6.70
2023-02-25T02:40:19.889Z,6.60
2023-02-25T02:44:32.195Z,6.20
2023-02-25T02:48:41.660Z,6.60
2023-02-25T02:52:28.144Z,6.90
2023-02-25T02:56:37.596Z,6.70
2023-02-25T03:00:46.194Z,7.70
2023-02-25T03:05:00.039Z,7.40
2023-02-25T03:09:12.675Z,7.20
2023-02-25T03:13:20.882Z,7.70
2023-02-25T03:17:42.546Z,7.60
2023-02-25T03:21:44.582Z,8.20
2023-02-25T03:26:00.474Z,7.70
2023-02-25T03:30:08.523Z,8.60
2023-02-25T03:34:39.230Z,8.30
2023-02-25T03:38:47.039Z,7.60
2023-02-25T03:42:56.851Z,7.40
2023-02-25T03:46:31.634Z,7.70
2023-02-25T03:51:05.159Z,6.70
2023-02-25T03:55:06.939Z,6.70
2023-02-25T03:59:16.652Z,6.20
2023-02-25T04:03:20.006Z,7.10
2023-02-25T04:07:14.691Z,7.60
2023-02-25T04:11:24.183Z,7.70
2023-02-25T04:15:17.570Z,7.00
2023-02-25T04:19:06.879Z,6.20
2023-02-25T04:22:55.450Z,6.90
2023-02-25T04:26:56.808Z,6.70
2023-02-25T04:30:49.504Z,7.60
2023-02-25T04:34:41.601Z,6.90
2023-02-25T04:38:51.271Z,6.60
2023-02-25T04:42:42.363Z,6.90
2023-02-25T04:46:44.553Z,7.10
2023-02-25T04:50:43.875Z,6.80
2023-02-25T04:54:43.641Z,7.10
2023-02-25T04:58:49.368Z,7.20
2023-02-25T05:02:58.986Z,7.10
2023-02-25T05:07:08.445Z,7.20
2023-02-25T05:11:10.251Z,6.50
2023-02-25T05:15:04.651Z,6.70
2023-02-25T05:18:59.118Z,7.00
2023-02-25T05:23:02.335Z,6.70
2023-02-25T05:27:10.771Z,5.90
2023-02-25T05:31:01.112Z,6.50
2023-02-25T05:35:09.606Z,5.50
2023-02-25T05:39:12.854Z,6.20
2023-02-25T05:42:49.214Z,6.00
2023-02-25T05:46:54.779Z,5.90
2023-02-25T05:50:57.360Z,5.10
2023-02-25T05:54:51.074Z,5.20
2023-02-25T05:58:50.503Z,5.10
2023-02-25T06:03:02.157Z,6.00
2023-02-25T06:07:10.489Z,6.50
2023-02-25T06:11:19.850Z,5.80
2023-02-25T06:15:21.874Z,6.80
2023-02-25T06:19:31.307Z,5.90
2023-02-25T06:23:33.489Z,5.80
2023-02-25T06:27:32.943Z,7.70
2023-02-25T06:31:21.664Z,6.10
2023-02-25T06:35:23.360Z,6.90
2023-02-25T06:39:15.788Z,6.70
2023-02-25T06:43:16.298Z,22.00
2023-02-25T06:47:19.033Z,22.80
2023-02-25T06:51:21.154Z,15.10
2023-02-25T06:55:30.767Z,8.80
2023-02-25T06:59:25.531Z,6.00
2023-02-25T07:03:35.148Z,5.90
2023-02-25T07:06:49.619Z,4.90
2023-02-25T07:10:19.226Z,5.30
2023-02-25T07:14:21.337Z,6.20
2023-02-25T07:18:31.135Z,7.00
2023-02-25T07:22:40.906Z,13.30
2023-02-25T07:26:49.457Z,8.00
2023-02-25T07:30:04.400Z,6.70
2023-02-25T07:33:53.814Z,6.40
2023-02-25T07:38:03.391Z,5.90
2023-02-25T07:42:05.832Z,4.70
2023-02-25T07:46:15.430Z,4.20
2023-02-25T07:50:12.701Z,5.10
2023-02-25T07:54:24.070Z,5.50
2023-02-25T07:58:33.635Z,5.20
2023-02-25T08:02:35.961Z,5.30
2023-02-25T08:06:45.592Z,6.40
2023-02-25T08:10:43.707Z,5.30
2023-02-25T08:14:51.723Z,5.50
2023-02-25T08:19:03.991Z,5.90
2023-02-25T08:23:02.202Z,6.10
2023-02-25T08:27:11.900Z,5.80
2023-02-25T08:31:20.279Z,6.00
2023-02-25T08:35:23.691Z,6.20
2023-02-25T08:38:59.704Z,9.00
2023-02-25T08:43:09.421Z,7.80
2023-02-25T08:47:07.708Z,4.00
2023-02-25T08:50:57.337Z,5.40
2023-02-25T08:55:05.675Z,6.60
2023-02-25T08:59:15.498Z,5.40
2023-02-25T09:03:15.392Z,8.20
2023-02-25T09:07:02.074Z,10.50
2023-02-25T09:10:50.883Z,6.70
2023-02-25T09:14:39.083Z,6.10
2023-02-25T09:18:48.701Z,6.70
2023-02-25T09:22:58.418Z,3.90
2023-02-25T09:27:07.977Z,4.70
2023-02-25T09:30:39.852Z,3.50
2023-02-25T09:34:41.785Z,2.20
2023-02-25T09:38:51.538Z,0.50
2023-02-25T09:42:49.881Z,0.60
2023-02-25T09:46:51.939Z,0.80
2023-02-25T09:51:01.499Z,0.70
2023-02-25T09:55:09.226Z,0.80
2023-02-25T09:59:07.414Z,1.10
2023-02-25T10:02:37.352Z,0.70
2023-02-25T10:06:38.466Z,0.50
2023-02-25T10:11:12.269Z,0.80
2023-02-25T10:15:19.201Z,0.50
2023-02-25T10:19:17.361Z,0.70
2023-02-25T10:23:26.480Z,0.80
2023-02-25T10:27:38.754Z,0.70
2023-02-25T10:31:45.981Z,0.70
2023-02-25T10:35:57.467Z,1.00
2023-02-25T10:39:54.012Z,1.20
2023-02-25T10:44:03.385Z,1.10
2023-02-25T10:48:15.798Z,0.80
2023-02-25T10:52:23.473Z,1.10
2023-02-25T10:56:38.993Z,1.40
2023-02-25T11:00:46.692Z,1.30
2023-02-25T11:04:56.325Z,1.30
2023-02-25T11:09:04.349Z,1.30
2023-02-25T11:13:08.602Z,1.30
2023-02-25T11:17:06.588Z,0.90
2023-02-25T11:20:58.172Z,1.50
2023-02-25T11:25:03.435Z,1.40
2023-02-25T11:29:11.119Z,1.00
2023-02-25T11:33:20.938Z,0.80
2023-02-25T11:37:29.166Z,1.00
2023-02-25T11:41:44.841Z,1.10
2023-02-25T11:45:57.127Z,1.30
2023-02-25T11:49:55.413Z,1.20
2023-02-25T11:54:16.603Z,1.20
2023-02-25T11:58:50.321Z,1.50
2023-02-25T12:02:56.120Z,1.30
2023-02-25T12:07:13.278Z,1.40
2023-02-25T12:11:19.017Z,1.90
2023-02-25T12:15:21.066Z,1.40
2023-02-25T12:19:42.276Z,1.50
2023-02-25T12:23:42.388Z,1.80
2023-02-25T12:27:48.328Z,2.00
2023-02-25T12:32:00.756Z,2.00
2023-02-25T12:35:42.388Z,1.80
2023-02-25T12:39:54.895Z,1.80
2023-02-25T12:44:14.275Z,1.50
2023-02-25T12:48:24.728Z,1.70
2023-02-25T12:52:36.937Z,1.60
2023-02-25T12:56:16.419Z,1.70
2023-02-25T13:00:29.310Z,1.80
2023-02-25T13:04:44.206Z,2.10
2023-02-25T13:08:40.257Z,2.00
2023-02-25T13:13:01.720Z,2.00
2023-02-25T13:17:14.005Z,1.50
2023-02-25T13:21:21.806Z,1.90
2023-02-25T13:25:32.573Z,1.30
2023-02-25T13:29:44.877Z,1.70
2023-02-25T13:33:58.823Z,2.30
2023-02-25T13:42:18.176Z,1.80
2023-02-25T13:46:51.667Z,2.00
2023-02-25T13:50:46.772Z,1.90
2023-02-25T13:54:46.691Z,2.00
2023-02-25T13:58:39.935Z,2.50
2023-02-25T14:03:01.392Z,2.20
2023-02-25T14:07:42.442Z,2.60
2023-02-25T14:12:12.531Z,1.60
2023-02-25T14:16:00.504Z,1.60
2023-02-25T14:20:12.822Z,1.80
2023-02-25T14:24:25.277Z,2.90
2023-02-25T14:28:38.090Z,2.60
2023-02-25T14:32:51.879Z,2.30
2023-02-25T14:37:07.901Z,1.70
2023-02-25T14:40:47.165Z,1.80
2023-02-25T14:44:56.983Z,2.30
2023-02-25T14:48:49.137Z,1.80
2023-02-25T14:52:38.567Z,1.50
2023-02-25T14:56:36.095Z,1.30
2023-02-25T15:00:51.382Z,1.40
2023-02-25T15:05:11.457Z,1.70
2023-02-25T15:09:45.427Z,1.70
2023-02-25T15:13:53.111Z,1.50
2023-02-25T15:18:03.965Z,1.70
2023-02-25T15:22:20.800Z,1.30
2023-02-25T15:26:25.512Z,1.70
2023-02-25T15:30:20.655Z,1.90
2023-02-25T15:35:03.800Z,1.70
2023-02-25T15:39:25.107Z,2.20
2023-02-25T15:47:07.287Z,1.50
2023-02-25T15:51:06.560Z,1.70
2023-02-25T15:55:16.010Z,1.50
2023-02-25T16:13:36.042Z,2.40
2023-02-25T16:16:05.965Z,1.70
2023-02-25T16:18:45.272Z,1.50
2023-02-25T16:21:39.197Z,1.70
2023-02-25T16:24:12.276Z,1.40
2023-02-25T16:27:06.519Z,1.70
2023-02-25T16:29:59.172Z,1.60
2023-02-25T16:35:35.912Z,1.70
2023-02-25T16:38:26.555Z,1.40
2023-02-25T16:40:54.847Z,1.70
2023-02-25T16:43:28.505Z,1.60
2023-02-25T16:46:00.431Z,1.20
2023-02-25T16:48:39.341Z,1.80
2023-02-25T16:51:10.592Z,1.20
2023-02-25T16:53:45.463Z,1.80
2023-02-25T16:56:20.124Z,2.00
2023-02-25T16:58:58.688Z,1.20
2023-02-25T17:01:29.886Z,1.00
2023-02-25T17:04:23.109Z,1.30
2023-02-25T17:07:17.994Z,1.00
2023-02-25T17:09:49.281Z,1.60
2023-02-25T17:12:47.704Z,1.20
2023-02-25T17:15:29.200Z,1.20
2023-02-25T17:18:10.431Z,1.00
2023-02-25T17:20:39.879Z,1.10
2023-02-25T17:23:11.353Z,1.50
2023-02-25T17:25:43.164Z,1.60
2023-02-25T17:28:22.988Z,1.60
2023-02-25T17:30:52.281Z,1.20
2023-02-25T17:33:26.328Z,1.20
2023-02-25T17:36:26.205Z,1.40
2023-02-25T17:38:58.561Z,1.30
2023-02-25T17:43:54.991Z,1.00
2023-02-25T17:46:27.619Z,0.80
2023-02-25T17:48:59.683Z,1.00
2023-02-25T17:51:36.730Z,0.90
2023-02-25T17:54:13.784Z,1.00
2023-02-25T17:56:42.532Z,1.00
2023-02-25T17:59:13.796Z,1.30
2023-02-25T18:02:03.210Z,1.00
2023-02-25T18:04:40.232Z,1.30
2023-02-25T18:07:32.712Z,1.60
2023-02-25T18:12:33.051Z,1.10
2023-02-25T18:15:15.781Z,1.70
2023-02-25T18:17:58.561Z,1.40
2023-02-25T18:20:31.304Z,1.60
2023-02-25T18:23:15.795Z,1.50
2023-02-25T18:25:46.796Z,1.70
2023-02-25T18:28:18.146Z,0.90
2023-02-25T18:30:46.232Z,1.00
2023-02-25T18:33:15.687Z,0.90
2023-02-25T18:35:46.537Z,0.80
2023-02-25T18:38:21.258Z,0.80
2023-02-25T18:40:50.885Z,0.90
2023-02-25T18:43:25.500Z,1.40
2023-02-25T18:45:53.966Z,2.00
2023-02-25T18:48:22.048Z,1.30
2023-02-25T18:50:50.324Z,1.10
2023-02-25T18:53:22.813Z,1.70
2023-02-25T18:58:24.903Z,1.80
2023-02-25T19:00:56.764Z,1.80
2023-02-25T19:03:29.717Z,1.50
2023-02-25T19:05:58.189Z,1.60
2023-02-25T19:08:26.540Z,1.80
2023-02-25T19:10:55.050Z,2.40
2023-02-25T19:13:39.012Z,1.70
2023-02-25T19:16:08.121Z,1.50
2023-02-25T19:18:37.730Z,1.70
2023-02-25T19:21:11.933Z,1.40
2023-02-25T19:23:40.638Z,1.60
2023-02-25T19:26:08.997Z,1.40
2023-02-25T19:28:37.448Z,1.90
2023-02-25T19:31:07.265Z,3.70
2023-02-25T19:33:36.525Z,2.00
2023-02-25T19:36:04.932Z,1.60
2023-02-25T19:38:33.826Z,1.10
2023-02-25T19:41:04.194Z,1.70
2023-02-25T19:43:33.312Z,1.40
2023-02-25T19:46:02.622Z,1.20
2023-02-25T19:48:30.775Z,1.50
2023-02-25T19:50:58.926Z,1.50
2023-02-25T19:53:27.474Z,1.40
2023-02-25T19:55:57.152Z,1.80
2023-02-25T19:58:25.466Z,1.30
2023-02-25T20:00:53.792Z,1.60
2023-02-25T20:03:23.082Z,1.20
2023-02-25T20:05:52.400Z,0.90
2023-02-25T20:08:20.946Z,1.00
2023-02-25T20:10:49.057Z,1.00
2023-02-25T20:13:17.938Z,1.10
2023-02-25T20:15:46.703Z,1.10
2023-02-25T20:18:15.962Z,1.20
2023-02-25T20:20:44.387Z,1.20
2023-02-25T20:23:12.677Z,1.20
2023-02-25T20:25:40.764Z,1.30
2023-02-25T20:28:09.076Z,1.20
2023-02-25T20:30:38.601Z,1.10
2023-02-25T20:33:06.932Z,1.10
2023-02-25T20:35:35.456Z,1.80
2023-02-25T20:38:24.278Z,1.20
2023-02-25T20:40:53.100Z,1.80
2023-02-25T20:43:21.899Z,1.70
2023-02-25T20:45:50.342Z,1.80
2023-02-25T20:48:28.063Z,1.70
2023-02-25T20:50:57.759Z,1.80
2023-02-25T20:53:26.250Z,2.10
2023-02-25T20:55:57.285Z,1.00
2023-02-25T20:58:25.591Z,1.30
2023-02-25T21:00:53.711Z,1.20
2023-02-25T21:03:22.020Z,1.30
2023-02-25T21:05:50.227Z,0.80
2023-02-25T21:08:18.313Z,1.30
2023-02-25T21:10:46.765Z,1.20
2023-02-25T21:13:15.881Z,1.90
2023-02-25T21:15:44.295Z,1.30
2023-02-25T21:18:12.564Z,1.40
2023-02-25T21:20:40.994Z,0.80
2023-02-25T21:23:11.310Z,1.30
2023-02-25T21:25:39.652Z,1.20
2023-02-25T21:28:08.119Z,0.80
2023-02-25T21:30:36.209Z,0.90
2023-02-25T21:33:04.349Z,1.10
2023-02-25T21:35:32.588Z,1.00
2023-02-25T21:38:00.809Z,0.70
2023-02-25T21:40:29.133Z,0.90
2023-02-25T21:42:58.146Z,1.00
2023-02-25T21:45:26.271Z,0.70
2023-02-25T21:47:54.679Z,1.10
2023-02-25T21:50:22.911Z,0.70
2023-02-25T21:52:51.326Z,0.70
2023-02-25T21:55:19.595Z,0.60
2023-02-25T21:57:47.770Z,0.80
2023-02-25T22:00:16.119Z,1.30
2023-02-25T22:02:44.195Z,0.90
2023-02-25T22:05:12.337Z,1.00
2023-02-25T22:07:40.371Z,1.30
2023-02-25T22:10:09.127Z,1.30
2023-02-25T22:12:37.559Z,1.00
2023-02-25T22:15:06.036Z,0.90
2023-02-25T22:17:34.416Z,1.20
2023-02-25T22:20:07.153Z,1.20
2023-02-25T22:22:37.757Z,1.40
2023-02-25T22:25:06.740Z,1.10
2023-02-25T22:27:34.844Z,1.30
2023-02-25T22:30:03.562Z,1.10
2023-02-25T22:32:35.540Z,1.10
2023-02-25T22:35:04.574Z,2.40
2023-02-25T22:37:32.633Z,1.40
2023-02-25T22:40:01.060Z,0.90
2023-02-25T22:42:29.140Z,0.90
2023-02-25T22:44:57.275Z,1.00
2023-02-25T22:47:26.017Z,0.80
2023-02-25T22:49:54.066Z,1.10
2023-02-25T22:52:22.117Z,0.90
2023-02-25T22:54:50.239Z,1.10
2023-02-25T22:57:18.284Z,1.10
2023-02-25T22:59:48.488Z,1.00
2023-02-25T23:02:16.704Z,1.00
2023-02-25T23:04:44.994Z,1.00
2023-02-25T23:07:13.023Z,1.00
2023-02-25T23:09:41.160Z,1.00
2023-02-25T23:12:09.516Z,0.90
2023-02-25T23:14:37.768Z,0.90
2023-02-25T23:17:06.532Z,1.20
2023-02-25T23:19:34.606Z,0.70
2023-02-25T23:22:02.851Z,0.80
2023-02-25T23:24:31.183Z,0.80
2023-02-25T23:26:59.483Z,1.20
2023-02-25T23:29:27.731Z,1.40
2023-02-25T23:31:56.252Z,1.10
2023-02-25T23:34:24.798Z,0.80
2023-02-25T23:36:56.683Z,0.80
2023-02-25T23:39:25.485Z,0.80
2023-02-25T23:41:53.625Z,0.60
2023-02-25T23:44:21.813Z,0.70
2023-02-25T23:46:50.217Z,0.70
2023-02-25T23:49:18.286Z,0.50
2023-02-25T23:51:47.979Z,0.40
2023-02-25T23:54:19.280Z,0.90
2023-02-25T23:56:48.777Z,0.60
2023-02-25T23:59:17.600Z,0.40
